Time;durP1;ratioP1;P1;durP2;ratioP2;P2;SDS_P1;SDS_P2;PMS_P1;PMS_P2;Temp;Humidity;BMP_temperature;BMP_pressure;BME280_temperature;BME280_humidity;BME280_pressure;Samples;Min_cycle;Max_cycle;Signal;HPM_P1;HPM_P2
2023/08/21 00:01:49;;;;;;;10.40;8.00;;;;;;;;;;6279590;28;20041;-76
2023/08/21 00:04:51;;;;;;;11.70;7.47;;;;;;;;;;6285127;28;20108;-76
2023/08/21 00:07:53;;;;;;;14.57;7.10;;;;;;;;;;6283172;28;20064;-75
2023/08/21 00:10:56;;;;;;;8.33;7.13;;;;;;;;;;6285111;28;20033;-75
2023/08/21 00:13:57;;;;;;;11.13;7.60;;;;;;;;;;6285217;28;20074;-77
2023/08/21 00:16:59;;;;;;;10.82;8.05;;;;;;;;;;6280697;28;20048;-77
2023/08/21 00:20:01;;;;;;;10.77;7.95;;;;;;;;;;6284985;28;20049;-75
2023/08/21 00:23:03;;;;;;;10.88;8.00;;;;;;;;;;6283017;28;20060;-76
2023/08/21 00:26:05;;;;;;;11.38;7.70;;;;;;;;;;6283656;28;20609;-75
2023/08/21 00:29:07;;;;;;;11.93;8.82;;;;;;;;;;6284831;28;20054;-76
2023/08/21 00:32:08;;;;;;;12.55;8.43;;;;;;;;;;6280795;28;20151;-74
2023/08/21 00:35:10;;;;;;;14.55;8.45;;;;;;;;;;6316945;28;20032;-78
2023/08/21 00:38:12;;;;;;;12.30;8.20;;;;;;;;;;6284325;28;20096;-75
2023/08/21 00:41:14;;;;;;;12.05;7.72;;;;;;;;;;6284399;28;20466;-75
2023/08/21 00:44:15;;;;;;;11.55;7.97;;;;;;;;;;6282898;28;20045;-77
2023/08/21 00:47:19;;;;;;;11.43;7.85;;;;;;;;;;6280525;28;20051;-77
2023/08/21 00:50:22;;;;;;;11.60;7.80;;;;;;;;;;6283664;28;20128;-77
2023/08/21 00:53:24;;;;;;;12.38;8.52;;;;;;;;;;6282583;28;20045;-77
2023/08/21 00:56:26;;;;;;;12.90;8.00;;;;;;;;;;6284870;28;20285;-75
2023/08/21 00:59:28;;;;;;;10.47;8.20;;;;;;;;;;6315299;28;20052;-78
2023/08/21 01:02:30;;;;;;;13.60;8.23;;;;;;;;;;6280401;28;20047;-77
2023/08/21 01:05:33;;;;;;;12.30;7.88;;;;;;;;;;6286483;28;20447;-76
2023/08/21 01:08:44;;;;;;;9.73;7.70;;;;;;;;;;6283390;28;20025;-76
2023/08/21 01:12:23;;;;;;;9.60;7.88;;;;;;;;;;6286185;28;20044;-77
2023/08/21 01:15:25;;;;;;;10.20;7.35;;;;;;;;;;6282119;28;20037;-78
2023/08/21 01:18:28;;;;;;;8.98;7.88;;;;;;;;;;6298856;28;20037;-78
2023/08/21 01:21:30;;;;;;;12.98;8.52;;;;;;;;;;6271988;28;20048;-74
2023/08/21 01:24:31;;;;;;;12.67;8.43;;;;;;;;;;6283972;28;20096;-77
2023/08/21 01:27:35;;;;;;;11.38;8.38;;;;;;;;;;6299713;28;20045;-74
2023/08/21 01:30:36;;;;;;;;;;;;;;;;;;6271786;28;20060;-74
2023/08/21 01:33:57;;;;;;;11.25;7.60;;;;;;;;;;6281671;28;19931;-75
2023/08/21 01:37:03;;;;;;;10.13;7.80;;;;;;;;;;6267082;28;20052;-75
2023/08/21 01:40:05;;;;;;;11.82;7.55;;;;;;;;;;6280645;28;20056;-75
2023/08/21 01:43:07;;;;;;;13.05;8.15;;;;;;;;;;6283962;28;20048;-75
2023/08/21 01:46:10;;;;;;;11.40;7.35;;;;;;;;;;6285079;28;20033;-75
2023/08/21 01:49:11;;;;;;;11.60;8.07;;;;;;;;;;6285201;28;20041;-74
2023/08/21 01:52:13;;;;;;;10.50;7.97;;;;;;;;;;6306114;28;20056;-75
2023/08/21 01:55:15;;;;;;;12.40;9.23;;;;;;;;;;6251680;28;20048;-78
2023/08/21 01:58:17;;;;;;;16.15;9.57;;;;;;;;;;6298228;28;20077;-79
2023/08/21 02:01:18;;;;;;;16.60;9.68;;;;;;;;;;6294155;28;20055;-78
2023/08/21 02:04:20;;;;;;;16.75;9.80;;;;;;;;;;6326006;28;20587;-77
2023/08/21 02:07:22;;;;;;;13.35;9.25;;;;;;;;;;6299495;28;20047;-77
2023/08/21 02:10:23;;;;;;;13.05;9.13;;;;;;;;;;6293629;28;20040;-77
2023/08/21 02:13:25;;;;;;;11.75;8.75;;;;;;;;;;6311872;28;20024;-77
2023/08/21 02:16:27;;;;;;;16.63;9.73;;;;;;;;;;6277761;28;20040;-79
2023/08/21 02:19:28;;;;;;;13.13;9.55;;;;;;;;;;6298444;28;20135;-76
2023/08/21 02:22:30;;;;;;;14.93;9.73;;;;;;;;;;6330252;28;20104;-77
2023/08/21 02:25:32;;;;;;;13.10;9.77;;;;;;;;;;6284454;28;20026;-77
2023/08/21 02:28:34;;;;;;;11.77;8.60;;;;;;;;;;6295550;28;20120;-78
2023/08/21 02:31:36;;;;;;;11.27;8.13;;;;;;;;;;6295760;28;20044;-79
2023/08/21 02:34:39;;;;;;;11.80;8.88;;;;;;;;;;6327160;28;20048;-77
2023/08/21 02:37:41;;;;;;;10.82;8.20;;;;;;;;;;6282597;28;20064;-78
2023/08/21 02:40:43;;;;;;;12.02;8.73;;;;;;;;;;6299624;28;20045;-78
2023/08/21 02:43:45;;;;;;;13.38;8.80;;;;;;;;;;6294074;28;20148;-80
2023/08/21 02:46:46;;;;;;;14.20;9.32;;;;;;;;;;6314520;28;20052;-77
2023/08/21 02:49:48;;;;;;;10.88;8.82;;;;;;;;;;6302918;28;20064;-76
2023/08/21 02:52:50;;;;;;;14.65;9.32;;;;;;;;;;6305255;28;20506;-79
2023/08/21 02:55:51;;;;;;;13.60;8.77;;;;;;;;;;6285306;28;20053;-79
2023/08/21 02:58:53;;;;;;;10.23;8.45;;;;;;;;;;6287543;28;20061;-79
2023/08/21 03:01:55;;;;;;;11.82;9.18;;;;;;;;;;6316018;28;20037;-77
2023/08/21 03:04:56;;;;;;;13.13;9.38;;;;;;;;;;6311292;28;20040;-77
2023/08/21 03:07:58;;;;;;;13.00;9.55;;;;;;;;;;6278336;28;20052;-77
2023/08/21 03:11:00;;;;;;;13.98;9.70;;;;;;;;;;6299856;28;20055;-80
2023/08/21 03:14:02;;;;;;;15.07;9.68;;;;;;;;;;6298604;28;20044;-80
2023/08/21 03:17:04;;;;;;;14.23;9.70;;;;;;;;;;6294384;28;20524;-77
2023/08/21 03:20:06;;;;;;;12.53;9.47;;;;;;;;;;6299233;28;20036;-77
2023/08/21 03:23:09;;;;;;;12.18;9.60;;;;;;;;;;6333127;28;20436;-77
2023/08/21 03:26:11;;;;;;;13.45;10.13;;;;;;;;;;6298693;28;20105;-80
2023/08/21 03:29:13;;;;;;;13.30;9.98;;;;;;;;;;6272083;28;20052;-80
2023/08/21 03:32:18;;;;;;;15.40;10.53;;;;;;;;;;6289716;28;20106;-80
2023/08/21 03:35:21;;;;;;;14.68;11.38;;;;;;;;;;6304228;28;20101;-79
2023/08/21 03:38:22;;;;;;;13.77;10.60;;;;;;;;;;6271105;28;20044;-78
2023/08/21 03:41:25;;;;;;;15.90;10.57;;;;;;;;;;6266642;28;20044;-78
2023/08/21 03:44:27;;;;;;;16.88;11.05;;;;;;;;;;6268469;28;20051;-79
2023/08/21 03:47:29;;;;;;;18.38;11.23;;;;;;;;;;6266454;28;20044;-79
2023/08/21 03:50:36;;;;;;;14.88;10.23;;;;;;;;;;6271477;28;20696;-80
2023/08/21 03:53:38;;;;;;;14.20;9.50;;;;;;;;;;6249505;28;20040;-79
2023/08/21 03:56:40;;;;;;;12.70;9.47;;;;;;;;;;6299322;28;20129;-79
2023/08/21 03:59:41;;;;;;;14.95;10.05;;;;;;;;;;6281761;28;20051;-79
2023/08/21 04:02:43;;;;;;;12.90;9.27;;;;;;;;;;6266389;28;20056;-77
2023/08/21 04:05:45;;;;;;;13.95;8.65;;;;;;;;;;6263641;28;20045;-77
2023/08/21 04:08:47;;;;;;;10.88;8.70;;;;;;;;;;6300558;28;20419;-78
2023/08/21 04:11:48;;;;;;;12.77;8.85;;;;;;;;;;6296718;28;20044;-78
2023/08/21 04:14:50;;;;;;;14.13;9.80;;;;;;;;;;6298717;28;20052;-78
2023/08/21 04:17:52;;;;;;;11.27;9.48;;;;;;;;;;6278751;28;20550;-77
2023/08/21 04:20:54;;;;;;;;;;;;;;;;;;6298304;28;20053;-78
2023/08/21 04:23:56;;;;;;;12.27;9.10;;;;;;;;;;6285621;28;19920;-78
2023/08/21 04:26:58;;;;;;;13.57;9.70;;;;;;;;;;6265328;28;20049;-79
2023/08/21 04:30:00;;;;;;;13.52;10.10;;;;;;;;;;6275228;28;20044;-77
2023/08/21 04:33:02;;;;;;;15.50;10.88;;;;;;;;;;6282023;28;20044;-77
2023/08/21 04:36:04;;;;;;;12.70;10.30;;;;;;;;;;6269764;28;20040;-78
2023/08/21 04:39:06;;;;;;;14.25;9.82;;;;;;;;;;6279608;28;20063;-79
2023/08/21 04:42:09;;;;;;;17.80;10.45;;;;;;;;;;6267277;28;20552;-79
2023/08/21 04:45:11;;;;;;;14.15;10.20;;;;;;;;;;6263429;28;20049;-78
2023/08/21 04:48:13;;;;;;;17.33;10.48;;;;;;;;;;6280409;28;20052;-77
2023/08/21 04:51:15;;;;;;;12.70;9.57;;;;;;;;;;6262596;28;20128;-77
2023/08/21 04:54:17;;;;;;;14.93;10.32;;;;;;;;;;6271290;28;20117;-78
2023/08/21 04:57:20;;;;;;;13.43;10.10;;;;;;;;;;6273746;28;20060;-77
2023/08/21 05:00:22;;;;;;;16.13;10.32;;;;;;;;;;6262510;28;20048;-76
2023/08/21 05:03:24;;;;;;;16.30;10.40;;;;;;;;;;6265917;28;20463;-77
2023/08/21 05:06:26;;;;;;;15.57;10.33;;;;;;;;;;6290191;28;20055;-77
2023/08/21 05:09:28;;;;;;;15.70;10.98;;;;;;;;;;6274444;28;20446;-79
2023/08/21 05:12:31;;;;;;;15.10;10.45;;;;;;;;;;6272054;28;20460;-79
2023/08/21 05:15:33;;;;;;;18.38;11.80;;;;;;;;;;6272339;28;20462;-78
2023/08/21 05:18:35;;;;;;;16.87;11.33;;;;;;;;;;6288014;28;20074;-76
2023/08/21 05:21:37;;;;;;;15.25;11.07;;;;;;;;;;6287298;28;20055;-80
2023/08/21 05:24:39;;;;;;;14.50;9.35;;;;;;;;;;6302684;28;20127;-80
2023/08/21 05:27:41;;;;;;;12.60;9.13;;;;;;;;;;6307642;28;20040;-79
2023/08/21 05:30:46;;;;;;;11.60;9.13;;;;;;;;;;6287630;28;20040;-77
2023/08/21 05:33:48;;;;;;;13.40;9.60;;;;;;;;;;6302877;28;20041;-79
2023/08/21 05:36:51;;;;;;;13.05;10.05;;;;;;;;;;6267338;28;20066;-78
2023/08/21 05:39:52;;;;;;;13.15;10.07;;;;;;;;;;6264384;28;20102;-79
2023/08/21 05:42:54;;;;;;;15.32;11.68;;;;;;;;;;6267947;28;20238;-79
2023/08/21 05:45:56;;;;;;;15.00;11.97;;;;;;;;;;6300355;28;20534;-77
2023/08/21 05:48:58;;;;;;;13.05;10.18;;;;;;;;;;6280766;28;20485;-77
2023/08/21 05:52:01;;;;;;;13.85;10.15;;;;;;;;;;6261676;28;20041;-80
2023/08/21 05:55:03;;;;;;;14.68;10.50;;;;;;;;;;6291045;28;20045;-79
2023/08/21 05:58:05;;;;;;;16.42;10.68;;;;;;;;;;6288811;28;20523;-78
2023/08/21 06:01:07;;;;;;;15.68;11.52;;;;;;;;;;6265499;28;20044;-79
2023/08/21 06:04:09;;;;;;;14.73;11.45;;;;;;;;;;6267446;28;20127;-79
2023/08/21 06:07:25;;;;;;;14.25;11.57;;;;;;;;;;6266013;28;20338;-78
2023/08/21 06:10:27;;;;;;;14.27;11.83;;;;;;;;;;6273923;28;20139;-78
2023/08/21 06:13:28;;;;;;;15.07;11.30;;;;;;;;;;6265155;28;20036;-79
2023/08/21 06:16:31;;;;;;;16.05;11.88;;;;;;;;;;6288108;28;20063;-78
2023/08/21 06:19:33;;;;;;;19.20;12.00;;;;;;;;;;6246829;28;20049;-78
2023/08/21 06:22:35;;;;;;;16.05;12.00;;;;;;;;;;6255398;28;20033;-78
2023/08/21 06:25:38;;;;;;;19.27;12.15;;;;;;;;;;6241181;28;20526;-77
2023/08/21 06:28:40;;;;;;;17.75;12.02;;;;;;;;;;6229429;28;20048;-78
2023/08/21 06:31:42;;;;;;;15.27;10.48;;;;;;;;;;6255861;28;20052;-75
2023/08/21 06:34:44;;;;;;;14.00;11.68;;;;;;;;;;6259968;28;20183;-78
2023/08/21 06:37:45;;;;;;;17.63;11.65;;;;;;;;;;6285886;28;20076;-79
2023/08/21 06:40:47;;;;;;;17.15;11.43;;;;;;;;;;6264561;28;20059;-78
2023/08/21 06:43:49;;;;;;;21.13;11.40;;;;;;;;;;6281466;28;20666;-77
2023/08/21 06:46:53;;;;;;;16.75;11.32;;;;;;;;;;6281519;28;20471;-76
2023/08/21 06:49:54;;;;;;;22.03;11.70;;;;;;;;;;6269751;28;20040;-76
2023/08/21 06:52:56;;;;;;;21.50;11.38;;;;;;;;;;6276494;28;20045;-75
2023/08/21 06:55:58;;;;;;;20.45;11.43;;;;;;;;;;6278377;28;20425;-78
2023/08/21 06:58:59;;;;;;;23.02;11.27;;;;;;;;;;6274413;28;20044;-75
2023/08/21 07:02:05;;;;;;;18.73;11.02;;;;;;;;;;6281475;28;20037;-75
2023/08/21 07:05:08;;;;;;;18.02;10.20;;;;;;;;;;6281170;28;20045;-74
2023/08/21 07:08:13;;;;;;;20.90;9.60;;;;;;;;;;6279439;28;20128;-76
2023/08/21 07:11:17;;;;;;;14.75;10.68;;;;;;;;;;6263715;28;20048;-77
2023/08/21 07:14:19;;;;;;;16.27;9.80;;;;;;;;;;6272367;28;20174;-76
2023/08/21 07:17:21;;;;;;;17.27;10.30;;;;;;;;;;6275251;28;20071;-77
2023/08/21 07:20:22;;;;;;;15.50;9.67;;;;;;;;;;6277053;28;20051;-77
2023/08/21 07:23:24;;;;;;;15.75;9.43;;;;;;;;;;6279501;28;20052;-75
2023/08/21 07:26:26;;;;;;;12.63;9.00;;;;;;;;;;6277770;28;20690;-76
2023/08/21 07:29:30;;;;;;;14.80;9.27;;;;;;;;;;6283169;28;20080;-76
2023/08/21 07:32:32;;;;;;;18.25;9.07;;;;;;;;;;6279814;28;20048;-76
2023/08/21 07:35:33;;;;;;;15.70;8.70;;;;;;;;;;6292773;28;20189;-75
2023/08/21 07:38:35;;;;;;;12.80;7.73;;;;;;;;;;6283323;28;20422;-77
2023/08/21 07:41:37;;;;;;;10.13;7.25;;;;;;;;;;6284685;28;20047;-77
2023/08/21 07:44:39;;;;;;;14.73;8.57;;;;;;;;;;6284749;28;20391;-77
2023/08/21 07:47:41;;;;;;;18.88;7.88;;;;;;;;;;6284860;28;20438;-78
2023/08/21 07:50:50;;;;;;;10.00;6.87;;;;;;;;;;6286388;28;20485;-79
2023/08/21 07:53:52;;;;;;;8.93;6.40;;;;;;;;;;6284288;28;20041;-77
2023/08/21 07:56:54;;;;;;;9.10;6.60;;;;;;;;;;6281843;28;20052;-79
2023/08/21 07:59:56;;;;;;;10.00;6.57;;;;;;;;;;6289011;28;20415;-78
2023/08/21 08:02:57;;;;;;;7.07;6.20;;;;;;;;;;6282773;28;20052;-79
2023/08/21 08:05:59;;;;;;;7.13;5.73;;;;;;;;;;6263671;28;20071;-78
2023/08/21 08:09:16;;;;;;;10.40;6.27;;;;;;;;;;6287121;28;20530;-78
2023/08/21 08:12:18;;;;;;;9.75;6.07;;;;;;;;;;6281495;28;20826;-78
2023/08/21 08:15:20;;;;;;;9.67;6.60;;;;;;;;;;6265740;28;20089;-78
2023/08/21 08:18:22;;;;;;;7.85;6.38;;;;;;;;;;6279013;28;20063;-78
2023/08/21 08:21:23;;;;;;;8.43;6.37;;;;;;;;;;6288420;28;20149;-78
2023/08/21 08:24:25;;;;;;;6.97;6.03;;;;;;;;;;6280955;28;20060;-78
2023/08/21 08:27:26;;;;;;;7.00;6.30;;;;;;;;;;6283186;28;20102;-78
2023/08/21 08:30:28;;;;;;;7.70;6.00;;;;;;;;;;6277462;28;20569;-79
2023/08/21 08:33:30;;;;;;;7.93;6.53;;;;;;;;;;6269270;28;20211;-77
2023/08/21 08:36:31;;;;;;;7.50;5.97;;;;;;;;;;6259227;28;20044;-79
2023/08/21 08:39:33;;;;;;;8.50;6.90;;;;;;;;;;6252473;28;20079;-78
2023/08/21 08:42:35;;;;;;;7.40;6.70;;;;;;;;;;6258895;28;20110;-79
2023/08/21 08:45:40;;;;;;;7.68;6.18;;;;;;;;;;6279466;28;20053;-79
2023/08/21 08:48:42;;;;;;;8.23;6.53;;;;;;;;;;6271855;28;20056;-79
2023/08/21 08:51:44;;;;;;;7.28;6.57;;;;;;;;;;6289584;28;20126;-78
2023/08/21 08:54:46;;;;;;;7.60;6.13;;;;;;;;;;6285092;28;20102;-80
2023/08/21 08:57:48;;;;;;;7.20;6.20;;;;;;;;;;6268854;28;20044;-79
2023/08/21 09:00:50;;;;;;;6.97;6.05;;;;;;;;;;6287754;28;20113;-79
2023/08/21 09:03:51;;;;;;;7.50;6.03;;;;;;;;;;6285995;28;20640;-78
2023/08/21 09:07:17;;;;;;;6.85;6.18;;;;;;;;;;6281778;28;20468;-79
2023/08/21 09:10:19;;;;;;;7.55;6.43;;;;;;;;;;6283779;28;20121;-78
2023/08/21 09:13:21;;;;;;;6.50;5.90;;;;;;;;;;6283289;28;20179;-79
2023/08/21 09:16:25;;;;;;;8.85;6.57;;;;;;;;;;6271569;28;20110;-79
2023/08/21 09:19:27;;;;;;;8.77;6.68;;;;;;;;;;6302559;28;20032;-79
2023/08/21 09:22:28;;;;;;;8.27;6.30;;;;;;;;;;6286176;28;20447;-78
2023/08/21 09:25:40;;;;;;;6.63;5.80;;;;;;;;;;6286126;28;20055;-78
2023/08/21 09:28:42;;;;;;;10.05;6.78;;;;;;;;;;6291891;28;20044;-79
2023/08/21 09:31:45;;;;;;;;;;;;;;;;;;6269337;28;20044;-79
2023/08/21 09:34:47;;;;;;;9.43;6.43;;;;;;;;;;6289089;28;20011;-77
2023/08/21 09:37:52;;;;;;;6.78;5.95;;;;;;;;;;6286620;28;20159;-79
2023/08/21 09:40:55;;;;;;;9.25;6.63;;;;;;;;;;6286847;28;20067;-79
2023/08/21 09:44:00;;;;;;;7.65;6.10;;;;;;;;;;6287561;28;20041;-80
2023/08/21 09:47:02;;;;;;;6.90;5.05;;;;;;;;;;6271260;28;20048;-79
2023/08/21 09:50:04;;;;;;;7.15;4.97;;;;;;;;;;6291462;28;20521;-79
2023/08/21 09:53:06;;;;;;;;;;;;;;;;;;6289487;28;20037;-79
2023/08/21 09:56:08;;;;;;;6.13;5.53;;;;;;;;;;6301095;28;19920;-78
2023/08/21 09:59:11;;;;;;;5.82;4.88;;;;;;;;;;6267453;28;20119;-78
2023/08/21 10:02:13;;;;;;;8.50;4.55;;;;;;;;;;6286367;28;20049;-80
2023/08/21 10:05:19;;;;;;;5.10;4.60;;;;;;;;;;6286233;28;20048;-77
2023/08/21 10:08:27;;;;;;;6.95;4.70;;;;;;;;;;6270344;28;20094;-77
2023/08/21 10:11:30;;;;;;;4.95;4.45;;;;;;;;;;6284368;28;20052;-78
2023/08/21 10:14:33;;;;;;;6.25;4.75;;;;;;;;;;6299666;28;20052;-80
2023/08/21 10:17:36;;;;;;;5.25;4.75;;;;;;;;;;6298116;28;20066;-79
2023/08/21 10:20:39;;;;;;;5.35;4.82;;;;;;;;;;6293188;28;20135;-80
2023/08/21 10:23:41;;;;;;;5.75;5.20;;;;;;;;;;6292350;28;20033;-79
2023/08/21 10:26:46;;;;;;;5.90;4.72;;;;;;;;;;6289449;28;20460;-83
2023/08/21 10:29:57;;;;;;;4.65;3.55;;;;;;;;;;6295075;28;20045;-83
2023/08/21 10:33:00;;;;;;;4.47;3.97;;;;;;;;;;6294143;28;20036;-81
2023/08/21 10:36:04;;;;;;;4.30;3.60;;;;;;;;;;6299227;28;20049;-83
2023/08/21 10:39:25;;;;;;;5.03;3.75;;;;;;;;;;6280204;28;20063;-83
2023/08/21 10:42:41;;;;;;;5.05;4.10;;;;;;;;;;6273055;28;20045;-81
2023/08/21 10:45:55;;;;;;;4.57;4.18;;;;;;;;;;6277169;28;20071;-82
2023/08/21 10:48:57;;;;;;;5.10;4.60;;;;;;;;;;6258417;28;20049;-82
2023/08/21 10:51:59;;;;;;;;;;;;;;;;;;6296134;28;20063;-82
2023/08/21 10:55:05;;;;;;;6.40;4.40;;;;;;;;;;6272406;28;20333;-81
2023/08/21 10:58:11;;;;;;;5.68;4.53;;;;;;;;;;6308115;28;20048;-81
2023/08/21 11:01:14;;;;;;;6.70;4.53;;;;;;;;;;6274212;28;20623;-81
2023/08/21 11:04:16;;;;;;;4.70;4.30;;;;;;;;;;6267248;28;20060;-81
2023/08/21 11:07:18;;;;;;;4.88;4.32;;;;;;;;;;6279577;28;20045;-81
2023/08/21 11:10:24;;;;;;;6.28;4.55;;;;;;;;;;6275390;28;20036;-81
2023/08/21 11:13:25;;;;;;;7.78;4.75;;;;;;;;;;6270078;28;20045;-82
2023/08/21 11:16:27;;;;;;;7.28;4.75;;;;;;;;;;6270561;28;20059;-81
2023/08/21 11:19:32;;;;;;;7.38;4.78;;;;;;;;;;6274825;28;20060;-81
2023/08/21 11:22:34;;;;;;;6.70;5.07;;;;;;;;;;6243970;28;20068;-80
2023/08/21 11:25:40;;;;;;;;;;;;;;;;;;6266895;28;20454;-82
2023/08/21 11:28:42;;;;;;;6.63;4.25;;;;;;;;;;6273232;28;19929;-82
2023/08/21 11:31:47;;;;;;;5.70;4.45;;;;;;;;;;6296699;28;20060;-82
2023/08/21 11:34:50;;;;;;;4.53;4.13;;;;;;;;;;6285204;28;20557;-82
2023/08/21 11:37:52;;;;;;;5.57;4.38;;;;;;;;;;6301631;28;20094;-82
2023/08/21 11:40:57;;;;;;;4.65;4.10;;;;;;;;;;6283292;28;20052;-83
2023/08/21 11:44:03;;;;;;;4.72;4.30;;;;;;;;;;6265490;28;20051;-83
2023/08/21 11:47:05;;;;;;;6.00;4.13;;;;;;;;;;6287476;28;20052;-83
2023/08/21 11:50:08;;;;;;;;;;;;;;;;;;6318397;28;20044;-81
2023/08/21 11:53:11;;;;;;;4.78;3.60;;;;;;;;;;6296460;28;19927;-82
2023/08/21 11:56:17;;;;;;;4.55;4.15;;;;;;;;;;6270013;28;20056;-82
2023/08/21 11:59:23;;;;;;;5.13;4.30;;;;;;;;;;6272984;28;20049;-82
2023/08/21 12:02:26;;;;;;;5.47;4.70;;;;;;;;;;6272192;28;20061;-81
2023/08/21 12:05:29;;;;;;;5.20;4.70;;;;;;;;;;6251276;28;20418;-81
2023/08/21 12:08:30;;;;;;;5.72;4.57;;;;;;;;;;6270137;28;20127;-82
2023/08/21 12:11:35;;;;;;;5.00;4.25;;;;;;;;;;6287445;28;20090;-82
2023/08/21 12:14:39;;;;;;;5.03;4.45;;;;;;;;;;6293809;28;20051;-83
2023/08/21 12:17:41;;;;;;;5.63;4.07;;;;;;;;;;6292369;28;20052;-83
2023/08/21 12:20:43;;;;;;;;;;;;;;;;;;6289525;28;20392;-82
2023/08/21 12:23:44;;;;;;;4.43;3.70;;;;;;;;;;6288332;28;19920;-83
2023/08/21 12:26:47;;;;;;;4.47;4.07;;;;;;;;;;6282969;28;20423;-82
2023/08/21 12:29:51;;;;;;;4.22;3.75;;;;;;;;;;6223763;28;20568;-82
2023/08/21 12:32:53;;;;;;;4.25;3.85;;;;;;;;;;6235061;28;20069;-83
2023/08/21 12:35:55;;;;;;;4.18;3.50;;;;;;;;;;6251795;28;20056;-83
2023/08/21 12:38:56;;;;;;;4.35;3.90;;;;;;;;;;6242298;28;20045;-81
2023/08/21 12:41:58;;;;;;;3.35;2.90;;;;;;;;;;6254214;28;20095;-81
2023/08/21 12:45:00;;;;;;;3.03;2.72;;;;;;;;;;6248043;28;20052;-82
2023/08/21 12:48:03;;;;;;;3.35;3.05;;;;;;;;;;6270026;28;20077;-83
2023/08/21 12:51:05;;;;;;;3.72;3.05;;;;;;;;;;6252372;28;20099;-83
2023/08/21 12:54:08;;;;;;;3.75;2.75;;;;;;;;;;6251779;28;20515;-83
2023/08/21 12:57:11;;;;;;;3.83;3.13;;;;;;;;;;6259237;28;20113;-82
2023/08/21 13:00:13;;;;;;;4.50;2.90;;;;;;;;;;6265944;28;20052;-81
2023/08/21 13:03:15;;;;;;;;;;;;;;;;;;6258163;28;20049;-83
2023/08/21 13:06:16;;;;;;;3.47;2.15;;;;;;;;;;6264872;28;19921;-81
2023/08/21 13:09:18;;;;;;;2.47;2.28;;;;;;;;;;6260143;28;20046;-81
2023/08/21 13:12:20;;;;;;;3.08;2.50;;;;;;;;;;6261236;28;20061;-82
2023/08/21 13:15:21;;;;;;;3.58;2.38;;;;;;;;;;6241861;28;20057;-84
2023/08/21 13:18:23;;;;;;;3.40;2.42;;;;;;;;;;6262957;28;20644;-83
2023/08/21 13:21:25;;;;;;;2.50;2.30;;;;;;;;;;6249662;28;20060;-84
2023/08/21 13:24:28;;;;;;;3.28;2.70;;;;;;;;;;6250869;28;20178;-83
2023/08/21 13:27:29;;;;;;;3.28;2.58;;;;;;;;;;6253851;28;20163;-84
2023/08/21 13:30:31;;;;;;;2.90;2.15;;;;;;;;;;6253943;28;20423;-83
2023/08/21 13:33:47;;;;;;;3.03;2.47;;;;;;;;;;6255980;28;20045;-83
2023/08/21 13:36:52;;;;;;;3.53;2.47;;;;;;;;;;6251569;28;20045;-83
2023/08/21 13:39:55;;;;;;;3.45;2.90;;;;;;;;;;6252708;28;20041;-84
2023/08/21 13:42:57;;;;;;;3.95;3.05;;;;;;;;;;6254648;28;20049;-82
2023/08/21 13:46:03;;;;;;;3.47;3.17;;;;;;;;;;6259739;28;20061;-82
2023/08/21 13:49:06;;;;;;;4.28;3.33;;;;;;;;;;6265273;28;20048;-82
2023/08/21 13:52:07;;;;;;;3.83;3.15;;;;;;;;;;6254824;28;20041;-81
2023/08/21 13:55:10;;;;;;;4.15;2.97;;;;;;;;;;6268068;28;20067;-82
2023/08/21 13:58:12;;;;;;;4.75;3.20;;;;;;;;;;6282999;28;20053;-82
2023/08/21 14:01:14;;;;;;;3.60;3.10;;;;;;;;;;6270195;28;20056;-81
2023/08/21 14:04:15;;;;;;;3.92;3.30;;;;;;;;;;6263178;28;20237;-82
2023/08/21 14:07:17;;;;;;;3.83;3.17;;;;;;;;;;6264233;28;20047;-82
2023/08/21 14:10:19;;;;;;;3.10;2.90;;;;;;;;;;6268216;28;20049;-82
2023/08/21 14:13:21;;;;;;;3.03;2.72;;;;;;;;;;6268152;28;20045;-81
2023/08/21 14:16:23;;;;;;;3.30;3.00;;;;;;;;;;6268320;28;20048;-81
2023/08/21 14:19:25;;;;;;;;;;;;;;;;;;6278150;28;20041;-85
2023/08/21 14:22:26;;;;;;;3.35;2.63;;;;;;;;;;6295295;28;19920;-83
2023/08/21 14:25:28;;;;;;;4.38;3.30;;;;;;;;;;6277088;28;20800;-81
2023/08/21 14:28:30;;;;;;;3.60;3.13;;;;;;;;;;6291086;28;20170;-81
2023/08/21 14:31:32;;;;;;;;;;;;;;;;;;6273587;28;20052;-82
2023/08/21 14:34:34;;;;;;;3.50;3.20;;;;;;;;;;6283713;28;19947;-81
2023/08/21 14:37:36;;;;;;;;;;;;;;;;;;6287118;28;20048;-81
2023/08/21 14:40:37;;;;;;;4.50;3.03;;;;;;;;;;6273094;28;19924;-80
2023/08/21 14:43:39;;;;;;;5.35;3.22;;;;;;;;;;6297551;28;20040;-79
2023/08/21 14:46:41;;;;;;;3.35;3.05;;;;;;;;;;6289692;28;20041;-81
2023/08/21 14:49:44;;;;;;;4.28;3.50;;;;;;;;;;6288019;28;20200;-81
2023/08/21 14:52:47;;;;;;;3.88;3.33;;;;;;;;;;6287978;28;20041;-80
2023/08/21 14:55:50;;;;;;;5.68;3.50;;;;;;;;;;6294219;28;20240;-80
2023/08/21 14:58:52;;;;;;;3.65;3.30;;;;;;;;;;6293596;28;20055;-81
2023/08/21 15:01:55;;;;;;;4.20;3.10;;;;;;;;;;6288834;28;20418;-80
2023/08/21 15:04:57;;;;;;;3.60;3.30;;;;;;;;;;6294584;28;20615;-80
2023/08/21 15:08:01;;;;;;;5.82;3.45;;;;;;;;;;6288953;28;20056;-81
2023/08/21 15:11:02;;;;;;;3.30;3.00;;;;;;;;;;6286797;28;20102;-80
2023/08/21 15:14:09;;;;;;;4.07;3.20;;;;;;;;;;6258265;28;20048;-82
2023/08/21 15:17:11;;;;;;;3.65;3.33;;;;;;;;;;6265121;28;20103;-80
2023/08/21 15:20:20;;;;;;;3.88;3.58;;;;;;;;;;6265892;28;20052;-81
2023/08/21 15:23:22;;;;;;;5.38;3.92;;;;;;;;;;6263035;28;20063;-81
2023/08/21 15:26:24;;;;;;;4.55;3.95;;;;;;;;;;6262924;28;20491;-80
2023/08/21 15:29:26;;;;;;;4.45;4.05;;;;;;;;;;6264048;28;20091;-81
2023/08/21 15:32:27;;;;;;;3.60;3.30;;;;;;;;;;6249506;28;20049;-80
2023/08/21 15:35:29;;;;;;;4.22;3.83;;;;;;;;;;6256254;28;20049;-80
2023/08/21 15:38:30;;;;;;;4.03;3.63;;;;;;;;;;6268954;28;20045;-80
2023/08/21 15:41:33;;;;;;;4.88;4.38;;;;;;;;;;6264310;28;20048;-80
2023/08/21 15:44:34;;;;;;;;;;;;;;;;;;6268735;28;20041;-81
2023/08/21 15:47:36;;;;;;;4.32;3.95;;;;;;;;;;6253131;28;19987;-80
2023/08/21 15:50:49;;;;;;;4.38;3.97;;;;;;;;;;6260976;28;20049;-80
2023/08/21 15:53:51;;;;;;;6.63;4.50;;;;;;;;;;6243749;28;20048;-81
2023/08/21 15:56:53;;;;;;;5.18;4.65;;;;;;;;;;6249943;28;20056;-79
2023/08/21 15:59:54;;;;;;;4.97;4.05;;;;;;;;;;6271147;28;20048;-80
2023/08/21 16:02:56;;;;;;;5.78;4.40;;;;;;;;;;6256841;28;20040;-79
2023/08/21 16:05:58;;;;;;;4.95;4.55;;;;;;;;;;6257214;28;20076;-80
2023/08/21 16:09:00;;;;;;;4.53;4.13;;;;;;;;;;6239502;28;20451;-81
2023/08/21 16:12:02;;;;;;;5.03;4.55;;;;;;;;;;6257731;28;20055;-80
2023/08/21 16:15:05;;;;;;;4.70;4.18;;;;;;;;;;6268028;28;20051;-81
2023/08/21 16:18:07;;;;;;;5.40;4.60;;;;;;;;;;6270813;28;20456;-82
2023/08/21 16:21:10;;;;;;;5.18;4.78;;;;;;;;;;6287972;28;20059;-79
2023/08/21 16:24:11;;;;;;;;;;;;;;;;;;6279275;28;20604;-80
2023/08/21 16:27:13;;;;;;;5.10;4.60;;;;;;;;;;6290579;28;19931;-81
2023/08/21 16:30:15;;;;;;;5.30;4.72;;;;;;;;;;6293099;28;20056;-80
2023/08/21 16:33:17;;;;;;;5.30;4.80;;;;;;;;;;6303961;28;20055;-80
2023/08/21 16:36:19;;;;;;;5.50;5.00;;;;;;;;;;6306707;28;20044;-79
2023/08/21 16:39:21;;;;;;;5.47;4.97;;;;;;;;;;6296386;28;20048;-77
2023/08/21 16:42:23;;;;;;;5.53;5.03;;;;;;;;;;6291738;28;20106;-80
2023/08/21 16:45:25;;;;;;;5.60;5.00;;;;;;;;;;6297789;28;20468;-78
2023/08/21 16:48:27;;;;;;;5.78;5.28;;;;;;;;;;6293773;28;20044;-78
2023/08/21 16:51:29;;;;;;;6.57;5.45;;;;;;;;;;6291831;28;20219;-81
2023/08/21 16:54:30;;;;;;;6.05;4.90;;;;;;;;;;6294974;28;20070;-80
2023/08/21 16:57:32;;;;;;;8.38;5.72;;;;;;;;;;6296145;28;20041;-80
2023/08/21 17:00:35;;;;;;;6.10;5.50;;;;;;;;;;6294682;28;20044;-82
2023/08/21 17:03:36;;;;;;;6.45;5.70;;;;;;;;;;6295238;28;20037;-81
2023/08/21 17:06:38;;;;;;;6.85;5.75;;;;;;;;;;6289562;28;20782;-81
2023/08/21 17:09:45;;;;;;;6.18;5.50;;;;;;;;;;6283290;28;20056;-82
2023/08/21 17:12:46;;;;;;;5.25;4.82;;;;;;;;;;6285714;28;20044;-80
2023/08/21 17:15:48;;;;;;;5.50;5.00;;;;;;;;;;6283959;28;20044;-80
2023/08/21 17:18:53;;;;;;;6.82;5.00;;;;;;;;;;6288202;28;20036;-80
2023/08/21 17:21:55;;;;;;;5.57;5.05;;;;;;;;;;6282049;28;20457;-82
2023/08/21 17:24:59;;;;;;;5.60;5.00;;;;;;;;;;6279598;28;20711;-81
2023/08/21 17:28:15;;;;;;;6.13;4.97;;;;;;;;;;6259837;28;20056;-80
2023/08/21 17:31:17;;;;;;;5.18;4.68;;;;;;;;;;6262566;28;20045;-80
2023/08/21 17:34:19;;;;;;;5.78;4.82;;;;;;;;;;6259746;28;20045;-80
2023/08/21 17:37:21;;;;;;;5.95;4.80;;;;;;;;;;6257635;28;20057;-80
2023/08/21 17:40:23;;;;;;;;;;;;;;;;;;6290795;28;20802;-83
2023/08/21 17:43:24;;;;;;;6.15;4.80;;;;;;;;;;6259478;28;19929;-82
2023/08/21 17:46:26;;;;;;;4.65;4.25;;;;;;;;;;6270271;28;20495;-82
2023/08/21 17:49:28;;;;;;;5.20;4.70;;;;;;;;;;6264829;28;20037;-81
2023/08/21 17:52:31;;;;;;;4.57;4.15;;;;;;;;;;6270697;28;20045;-82
2023/08/21 17:55:34;;;;;;;5.28;4.55;;;;;;;;;;6265873;28;20045;-82
2023/08/21 17:58:36;;;;;;;5.97;4.60;;;;;;;;;;6267511;28;20059;-83
2023/08/21 18:01:38;;;;;;;4.80;4.30;;;;;;;;;;6267376;28;20045;-80
2023/08/21 18:04:40;;;;;;;6.22;4.80;;;;;;;;;;6268702;28;20049;-81
2023/08/21 18:07:42;;;;;;;5.90;4.30;;;;;;;;;;6283048;28;20056;-81
2023/08/21 18:10:43;;;;;;;4.97;4.50;;;;;;;;;;6264649;28;20112;-79
2023/08/21 18:13:45;;;;;;;5.95;4.50;;;;;;;;;;6320301;28;20105;-79